Time;durP1;ratioP1;P1;durP2;ratioP2;P2;SDS_P1;SDS_P2;PMS_P1;PMS_P2;Temp;Humidity;BMP_temperature;BMP_pressure;BME280_temperature;BME280_humidity;BME280_pressure;Samples;Min_cycle;Max_cycle;Signal;HPM_P1;HPM_P2
2022/10/12 00:01:23;;;;;;;11.45;2.05;;;12.60;90.90;;;;;;5036415;28;20025;-71
2022/10/12 00:03:49;;;;;;;8.98;2.45;;;12.60;90.80;;;;;;5035012;28;20056;-71
2022/10/12 00:06:20;;;;;;;11.68;2.55;;;12.70;90.70;;;;;;5035065;28;20029;-71
2022/10/12 00:08:47;;;;;;;12.25;2.05;;;12.70;90.50;;;;;;5035027;28;20110;-71
2022/10/12 00:11:19;;;;;;;14.75;2.47;;;12.60;90.50;;;;;;5035075;28;20036;-72
2022/10/12 00:13:44;;;;;;;7.78;1.88;;;12.40;90.80;;;;;;5034504;28;20026;-71
2022/10/12 00:16:11;;;;;;;13.52;2.08;;;12.30;91.10;;;;;;5035003;28;20032;-71
2022/10/12 00:18:37;;;;;;;8.02;1.38;;;12.30;91.20;;;;;;5034497;28;20029;-71
2022/10/12 00:21:15;;;;;;;11.35;1.77;;;12.20;91.30;;;;;;5034590;28;20025;-71
2022/10/12 00:23:42;;;;;;;10.27;1.65;;;12.20;91.30;;;;;;5034772;28;20025;-72
2022/10/12 00:26:14;;;;;;;9.75;1.80;;;12.10;91.40;;;;;;5034500;28;20037;-72
2022/10/12 00:28:40;;;;;;;7.43;1.80;;;12.10;91.50;;;;;;5034301;28;20049;-72
2022/10/12 00:31:12;;;;;;;4.75;1.30;;;12.00;91.60;;;;;;5034434;28;20034;-72
2022/10/12 00:33:37;;;;;;;7.70;1.50;;;12.00;91.60;;;;;;5034580;28;20053;-72
2022/10/12 00:36:12;;;;;;;11.60;1.88;;;12.20;91.50;;;;;;5034642;28;20045;-72
2022/10/12 00:38:38;;;;;;;6.30;1.33;;;12.30;91.30;;;;;;5034203;28;20021;-72
2022/10/12 00:41:04;;;;;;;6.85;1.20;;;12.30;91.50;;;;;;5034213;28;20029;-72
2022/10/12 00:43:34;;;;;;;10.52;1.52;;;12.50;91.10;;;;;;5034350;28;20049;-72
2022/10/12 00:46:04;;;;;;;9.20;1.40;;;12.60;90.90;;;;;;5034551;28;20028;-72
2022/10/12 00:48:30;;;;;;;7.63;1.20;;;12.70;90.70;;;;;;5034373;28;20052;-72
2022/10/12 00:50:58;;;;;;;6.97;1.35;;;12.70;90.50;;;;;;5033979;28;20393;-72
2022/10/12 00:53:28;;;;;;;8.38;1.70;;;12.90;90.40;;;;;;5033894;28;20064;-72
2022/10/12 00:55:59;;;;;;;8.73;1.55;;;12.90;90.20;;;;;;5038356;28;20134;-72
2022/10/12 00:58:30;;;;;;;11.32;2.00;;;12.90;89.90;;;;;;5035779;28;20025;-71
2022/10/12 01:00:57;;;;;;;10.73;1.90;;;12.80;90.10;;;;;;5034255;28;20470;-72
2022/10/12 01:03:23;;;;;;;9.40;1.42;;;12.60;90.20;;;;;;5033695;28;20033;-72
2022/10/12 01:05:49;;;;;;;10.45;2.10;;;12.60;90.30;;;;;;5033763;28;20025;-72
2022/10/12 01:08:14;;;;;;;10.18;1.90;;;12.50;90.20;;;;;;5032918;28;20030;-72
2022/10/12 01:10:40;;;;;;;10.80;2.08;;;12.40;90.40;;;;;;5033810;28;20037;-72
2022/10/12 01:13:06;;;;;;;8.70;1.70;;;12.30;90.70;;;;;;5033938;28;20022;-72
2022/10/12 01:15:46;;;;;;;10.70;1.77;;;12.20;90.90;;;;;;5033955;28;20140;-72
2022/10/12 01:18:17;;;;;;;9.52;1.73;;;12.10;91.10;;;;;;5033517;28;20031;-72
2022/10/12 01:21:09;;;;;;;9.05;1.75;;;12.00;91.20;;;;;;5033643;28;20029;-72
2022/10/12 01:24:14;;;;;;;7.78;1.60;;;11.90;91.30;;;;;;5033234;28;20477;-72
2022/10/12 01:27:11;;;;;;;10.60;1.98;;;11.90;91.40;;;;;;5033241;28;20052;-72
2022/10/12 01:30:08;;;;;;;11.27;1.83;;;12.00;91.40;;;;;;5033380;28;20516;-72
2022/10/12 01:32:43;;;;;;;10.70;1.80;;;12.00;91.30;;;;;;5033687;28;20033;-72
2022/10/12 01:35:15;;;;;;;8.40;1.70;;;12.10;91.20;;;;;;5033625;28;20044;-72
2022/10/12 01:37:40;;;;;;;8.23;1.55;;;12.20;91.00;;;;;;5033169;28;20481;-72
2022/10/12 01:40:22;;;;;;;8.57;1.63;;;12.40;91.20;;;;;;5033155;28;20041;-71
2022/10/12 01:42:49;;;;;;;5.22;1.40;;;12.40;90.70;;;;;;5033718;28;20029;-71
2022/10/12 01:45:17;;;;;;;10.50;2.00;;;12.50;90.60;;;;;;5033243;28;20029;-71
2022/10/12 01:47:48;;;;;;;12.02;1.90;;;12.60;90.50;;;;;;5033177;28;20556;-71
2022/10/12 01:50:15;;;;;;;7.63;1.33;;;12.40;90.30;;;;;;5034518;28;20040;-71
2022/10/12 01:52:57;;;;;;;15.52;2.15;;;12.30;90.60;;;;;;5040291;28;20036;-71
2022/10/12 01:55:28;;;;;;;11.57;1.85;;;12.30;90.70;;;;;;5033871;28;20018;-71
2022/10/12 01:58:21;;;;;;;12.30;1.77;;;12.20;90.80;;;;;;5033293;28;20085;-72
2022/10/12 02:01:16;;;;;;;10.40;1.80;;;12.10;91.00;;;;;;5033069;28;20030;-72
2022/10/12 02:03:51;;;;;;;14.75;1.77;;;11.90;91.20;;;;;;5033184;28;20021;-72
2022/10/12 02:06:19;;;;;;;5.75;1.00;;;11.90;91.30;;;;;;5032887;28;20029;-72
2022/10/12 02:09:14;;;;;;;11.05;2.10;;;12.00;91.20;;;;;;5033304;28;20025;-72
2022/10/12 02:11:42;;;;;;;11.43;2.10;;;12.10;91.10;;;;;;5033102;28;20036;-72
2022/10/12 02:14:22;;;;;;;9.25;2.13;;;12.20;91.10;;;;;;5033097;28;20026;-72
2022/10/12 02:16:55;;;;;;;8.70;1.35;;;12.20;91.00;;;;;;5033287;28;20056;-72
2022/10/12 02:19:27;;;;;;;9.32;1.67;;;12.30;90.90;;;;;;5033351;28;20124;-72
2022/10/12 02:21:56;;;;;;;9.63;1.67;;;12.30;90.80;;;;;;5037030;28;20431;-72
2022/10/12 02:24:23;;;;;;;6.50;1.20;;;12.30;90.70;;;;;;5036715;28;20038;-72
2022/10/12 02:26:52;;;;;;;7.70;1.35;;;12.40;90.70;;;;;;5036613;28;20045;-72
2022/10/12 02:29:26;;;;;;;6.40;1.15;;;12.40;90.60;;;;;;5037038;28;20037;-72
2022/10/12 02:32:02;;;;;;;8.20;1.55;;;12.50;90.50;;;;;;5036886;28;20029;-72
2022/10/12 02:34:33;;;;;;;10.38;1.67;;;12.50;90.40;;;;;;5036812;28;20116;-72
2022/10/12 02:37:19;;;;;;;13.75;2.20;;;12.40;90.30;;;;;;5036690;28;20068;-72
2022/10/12 02:39:53;;;;;;;7.47;1.02;;;12.30;90.40;;;;;;5036419;28;20041;-72
2022/10/12 02:42:26;;;;;;;8.63;1.52;;;12.40;90.50;;;;;;5036570;28;20029;-72
2022/10/12 02:44:54;;;;;;;12.13;2.17;;;12.50;90.50;;;;;;5036466;28;20473;-72
2022/10/12 02:47:22;;;;;;;7.78;1.50;;;12.50;90.30;;;;;;5036708;28;20057;-72
2022/10/12 02:49:48;;;;;;;7.90;1.52;;;12.50;90.30;;;;;;5042072;28;20075;-72
2022/10/12 02:52:13;;;;;;;10.95;1.90;;;12.40;90.30;;;;;;5037220;28;20028;-72
2022/10/12 02:54:39;;;;;;;13.95;2.15;;;12.40;90.40;;;;;;5036600;28;20022;-72
2022/10/12 02:57:05;;;;;;;7.43;1.30;;;12.40;90.40;;;;;;5036317;28;20021;-72
2022/10/12 02:59:30;;;;;;;10.43;1.95;;;12.30;90.70;;;;;;5036100;28;20393;-72
2022/10/12 03:01:56;;;;;;;8.30;1.40;;;12.30;90.50;;;;;;5036203;28;20053;-72
2022/10/12 03:04:21;;;;;;;9.25;1.13;;;12.30;90.50;;;;;;5035871;28;20022;-72
2022/10/12 03:06:47;;;;;;;5.47;1.23;;;12.40;90.40;;;;;;5035925;28;20029;-72
2022/10/12 03:09:13;;;;;;;8.05;1.23;;;12.50;90.30;;;;;;5036198;28;20041;-72
2022/10/12 03:11:42;;;;;;;9.18;1.38;;;12.60;90.20;;;;;;5035941;28;20025;-72
2022/10/12 03:14:10;;;;;;;5.97;1.13;;;12.60;90.10;;;;;;5035860;28;20068;-72
2022/10/12 03:16:36;;;;;;;8.40;1.58;;;12.60;90.10;;;;;;5035646;28;20042;-72
2022/10/12 03:19:01;;;;;;;7.18;1.20;;;12.60;90.00;;;;;;5035876;28;20048;-72
2022/10/12 03:21:27;;;;;;;8.27;1.42;;;12.70;90.00;;;;;;5035970;28;20026;-72
2022/10/12 03:23:52;;;;;;;8.25;1.90;;;12.60;90.00;;;;;;5035881;28;20539;-72
2022/10/12 03:26:18;;;;;;;7.13;1.38;;;12.70;90.00;;;;;;5035482;28;20389;-72
2022/10/12 03:28:44;;;;;;;9.65;1.70;;;12.70;90.00;;;;;;5035402;28;20096;-72
2022/10/12 03:31:09;;;;;;;7.40;1.40;;;12.70;89.90;;;;;;5034949;28;20029;-72
2022/10/12 03:33:36;;;;;;;8.05;1.55;;;12.70;89.80;;;;;;5035336;28;20045;-72
2022/10/12 03:36:01;;;;;;;9.30;1.30;;;12.70;89.80;;;;;;5035726;28;20088;-72
2022/10/12 03:38:27;;;;;;;12.95;1.98;;;12.70;89.70;;;;;;5035350;28;20045;-72
2022/10/12 03:40:53;;;;;;;9.52;1.27;;;12.70;89.60;;;;;;5035673;28;20033;-72
2022/10/12 03:43:18;;;;;;;9.48;1.55;;;12.70;89.60;;;;;;5035729;28;20026;-72
2022/10/12 03:45:44;;;;;;;9.65;1.77;;;12.70;89.60;;;;;;5038054;28;20026;-72
2022/10/12 03:48:10;;;;;;;7.35;1.50;;;12.60;89.50;;;;;;5038767;28;20032;-72
2022/10/12 03:50:35;;;;;;;9.10;1.75;;;12.60;89.50;;;;;;5035133;28;20056;-72
2022/10/12 03:53:03;;;;;;;5.55;1.45;;;12.60;89.50;;;;;;5035180;28;20029;-72
2022/10/12 03:55:28;;;;;;;12.82;2.53;;;12.60;89.50;;;;;;5035433;28;20362;-72
2022/10/12 03:57:54;;;;;;;10.55;2.47;;;12.70;89.50;;;;;;5035375;28;20027;-72
2022/10/12 04:00:20;;;;;;;10.73;2.42;;;12.60;89.60;;;;;;5034852;28;20045;-73
2022/10/12 04:02:45;;;;;;;7.18;1.90;;;12.60;89.60;;;;;;5035364;28;20465;-70
2022/10/12 04:05:11;;;;;;;10.20;2.40;;;12.60;89.60;;;;;;5034855;28;20469;-71
2022/10/12 04:07:37;;;;;;;12.15;2.22;;;12.60;89.50;;;;;;5034916;28;20013;-71
2022/10/12 04:10:03;;;;;;;13.07;2.50;;;12.60;89.50;;;;;;5034861;28;20111;-71
2022/10/12 04:12:29;;;;;;;8.80;2.35;;;12.60;89.50;;;;;;5034727;28;20068;-71
2022/10/12 04:14:54;;;;;;;8.25;2.40;;;12.50;89.30;;;;;;5035031;28;20049;-71
2022/10/12 04:17:20;;;;;;;9.10;3.28;;;12.60;89.40;;;;;;5034520;28;20384;-71
2022/10/12 04:19:46;;;;;;;10.32;3.33;;;12.60;89.40;;;;;;5034835;28;20041;-71
2022/10/12 04:22:11;;;;;;;8.85;3.38;;;12.60;89.30;;;;;;5034940;28;20541;-71
2022/10/12 04:24:37;;;;;;;8.23;3.50;;;12.50;89.30;;;;;;5034526;28;20025;-71
2022/10/12 04:27:03;;;;;;;10.00;3.33;;;12.40;89.40;;;;;;5034238;28;20138;-71
2022/10/12 04:29:28;;;;;;;13.13;3.90;;;12.40;89.50;;;;;;5034506;28;20041;-71
2022/10/12 04:31:57;;;;;;;13.13;4.45;;;12.40;89.50;;;;;;5034511;28;20072;-72
2022/10/12 04:34:22;;;;;;;10.60;3.35;;;12.30;89.60;;;;;;5034378;28;20037;-72
2022/10/12 04:36:49;;;;;;;13.73;3.65;;;12.30;89.60;;;;;;5034611;28;20017;-72
2022/10/12 04:39:14;;;;;;;13.55;4.15;;;12.30;89.70;;;;;;5034049;28;20038;-72
2022/10/12 04:41:40;;;;;;;10.30;4.05;;;12.30;89.70;;;;;;5034640;28;20163;-72
2022/10/12 04:44:06;;;;;;;13.13;4.65;;;12.10;89.70;;;;;;5042754;28;20021;-72
2022/10/12 04:46:32;;;;;;;15.82;5.20;;;12.00;90.00;;;;;;5033988;28;20053;-72
2022/10/12 04:48:57;;;;;;;14.13;4.00;;;11.90;90.20;;;;;;5034455;28;20503;-72
2022/10/12 04:51:23;;;;;;;17.05;4.68;;;11.80;90.40;;;;;;5034237;28;20037;-72
2022/10/12 04:53:49;;;;;;;15.10;5.03;;;11.50;90.60;;;;;;5034337;28;20104;-72
2022/10/12 04:56:15;;;;;;;15.48;5.35;;;11.30;91.00;;;;;;5033828;28;20116;-72
2022/10/12 04:58:41;;;;;;;12.45;4.35;;;11.30;91.10;;;;;;5033833;28;20088;-71
2022/10/12 05:01:06;;;;;;;11.90;4.05;;;11.30;91.10;;;;;;5033690;28;20029;-72
2022/10/12 05:03:32;;;;;;;10.02;3.60;;;11.40;91.00;;;;;;5033988;28;20049;-72
2022/10/12 05:05:57;;;;;;;15.25;3.97;;;11.50;90.80;;;;;;5033699;28;20024;-71
2022/10/12 05:08:23;;;;;;;10.65;3.78;;;11.70;90.80;;;;;;5033984;28;20029;-71
2022/10/12 05:10:48;;;;;;;12.32;4.05;;;11.80;90.70;;;;;;5033861;28;20083;-71
2022/10/12 05:13:14;;;;;;;13.10;4.78;;;11.80;90.50;;;;;;5033363;28;20024;-71
2022/10/12 05:15:42;;;;;;;13.50;4.10;;;11.90;90.40;;;;;;5033895;28;20025;-71
2022/10/12 05:18:09;;;;;;;10.88;4.20;;;11.90;90.40;;;;;;5033494;28;20533;-71
2022/10/12 05:20:34;;;;;;;13.48;4.45;;;11.90;90.30;;;;;;5033693;28;20068;-72
2022/10/12 05:23:00;;;;;;;12.70;4.03;;;12.00;90.20;;;;;;5033785;28;20048;-71
2022/10/12 05:25:28;;;;;;;11.98;3.75;;;12.00;90.20;;;;;;5033622;28;20377;-71
2022/10/12 05:27:54;;;;;;;11.43;4.03;;;12.00;90.00;;;;;;5033030;28;20092;-71
2022/10/12 05:30:20;;;;;;;16.85;4.95;;;12.00;90.00;;;;;;5033358;28;20060;-71
2022/10/12 05:32:45;;;;;;;9.35;4.30;;;12.00;89.80;;;;;;5033577;28;20017;-71
2022/10/12 05:35:11;;;;;;;9.75;4.00;;;11.90;90.00;;;;;;5033486;28;20596;-71
2022/10/12 05:37:36;;;;;;;13.93;4.28;;;11.90;90.10;;;;;;5033265;28;20075;-71
2022/10/12 05:40:02;;;;;;;12.13;4.13;;;11.90;90.00;;;;;;5037159;28;20069;-71
2022/10/12 05:42:28;;;;;;;13.13;3.95;;;11.90;90.00;;;;;;5036220;28;20033;-71
2022/10/12 05:44:53;;;;;;;8.55;3.97;;;11.90;90.00;;;;;;5033867;28;20025;-71
2022/10/12 05:47:19;;;;;;;11.07;4.00;;;12.00;90.00;;;;;;5033464;28;20488;-72
2022/10/12 05:49:45;;;;;;;12.88;4.50;;;12.00;89.90;;;;;;5032899;28;20369;-73
2022/10/12 05:52:10;;;;;;;10.65;4.90;;;12.00;89.70;;;;;;5033073;28;20056;-75
2022/10/12 05:54:36;;;;;;;14.25;4.72;;;12.00;89.60;;;;;;5031984;28;20037;-72
2022/10/12 05:57:02;;;;;;;12.35;4.65;;;12.00;89.60;;;;;;5032637;28;20021;-73
2022/10/12 05:59:27;;;;;;;15.55;5.28;;;12.00;89.80;;;;;;5034805;28;20436;-73
2022/10/12 06:01:53;;;;;;;11.18;5.13;;;11.90;89.80;;;;;;5041703;28;20025;-72
2022/10/12 06:04:19;;;;;;;13.48;5.07;;;11.90;89.90;;;;;;5033698;28;20025;-74
2022/10/12 06:06:44;;;;;;;14.02;5.50;;;11.90;90.00;;;;;;5043898;28;20022;-72
2022/10/12 06:09:11;;;;;;;14.57;5.70;;;11.80;90.00;;;;;;5037352;28;20120;-73
2022/10/12 06:11:37;;;;;;;14.68;6.18;;;11.90;90.20;;;;;;5043227;28;20029;-72
2022/10/12 06:14:03;;;;;;;13.23;5.05;;;11.80;90.20;;;;;;5038074;28;20032;-71
2022/10/12 06:16:29;;;;;;;10.70;4.78;;;11.90;90.30;;;;;;5035471;28;20037;-72
2022/10/12 06:18:54;;;;;;;14.60;5.97;;;11.90;90.60;;;;;;5032545;28;20095;-72
2022/10/12 06:21:20;;;;;;;15.93;5.40;;;11.90;90.20;;;;;;5041975;28;20098;-73
2022/10/12 06:23:45;;;;;;;10.65;4.28;;;11.90;90.40;;;;;;5052786;28;20480;-72
2022/10/12 06:26:11;;;;;;;14.15;5.15;;;11.90;90.40;;;;;;5052670;28;20100;-72
2022/10/12 06:28:37;;;;;;;15.60;5.43;;;12.00;90.50;;;;;;5052100;28;20052;-72
2022/10/12 06:31:03;;;;;;;12.52;5.00;;;12.00;90.40;;;;;;5042196;28;20073;-72
2022/10/12 06:33:28;;;;;;;13.27;5.45;;;12.00;90.40;;;;;;5032610;28;20120;-73
2022/10/12 06:35:55;;;;;;;11.95;4.43;;;12.00;90.40;;;;;;5032651;28;20026;-73
2022/10/12 06:38:21;;;;;;;13.45;5.95;;;12.00;90.50;;;;;;5036529;28;20435;-73
2022/10/12 06:40:47;;;;;;;15.05;6.00;;;12.00;90.50;;;;;;5034900;28;20507;-71
2022/10/12 06:43:12;;;;;;;17.75;7.60;;;12.00;90.40;;;;;;5041157;28;20022;-71
2022/10/12 06:45:39;;;;;;;14.68;5.75;;;12.00;90.50;;;;;;5037629;28;20079;-73
2022/10/12 06:48:06;;;;;;;15.68;5.75;;;12.00;90.70;;;;;;5031621;28;20026;-72
2022/10/12 06:50:31;;;;;;;14.68;6.03;;;12.00;90.60;;;;;;5037081;28;20021;-71
2022/10/12 06:52:58;;;;;;;16.48;6.30;;;12.00;90.60;;;;;;5040980;28;20037;-73
2022/10/12 06:55:23;;;;;;;12.63;5.43;;;12.00;90.60;;;;;;5037059;28;20033;-72
2022/10/12 06:57:49;;;;;;;13.18;5.68;;;12.00;90.70;;;;;;5042869;28;20146;-77
2022/10/12 07:00:15;;;;;;;12.75;5.60;;;12.00;90.70;;;;;;5039735;28;20186;-76
2022/10/12 07:02:40;;;;;;;15.32;6.20;;;12.00;90.80;;;;;;5040850;28;20021;-76
2022/10/12 07:05:06;;;;;;;12.70;4.80;;;12.00;90.70;;;;;;5042186;28;20025;-72
2022/10/12 07:07:34;;;;;;;18.52;6.40;;;12.00;90.80;;;;;;5045403;28;20055;-72
2022/10/12 07:10:00;;;;;;;15.95;5.93;;;12.10;90.90;;;;;;5036171;28;20017;-72
2022/10/12 07:12:26;;;;;;;15.15;6.80;;;12.00;90.90;;;;;;5032726;28;20025;-72
2022/10/12 07:14:53;;;;;;;16.48;5.85;;;12.00;90.90;;;;;;5035073;28;20471;-72
2022/10/12 07:17:19;;;;;;;15.38;6.38;;;12.00;91.10;;;;;;5034822;28;20022;-72
2022/10/12 07:19:45;;;;;;;15.45;6.45;;;12.00;91.10;;;;;;5036001;28;20033;-72
2022/10/12 07:22:10;;;;;;;18.52;6.40;;;12.00;91.10;;;;;;5035804;28;20025;-72
2022/10/12 07:24:36;;;;;;;15.88;6.82;;;12.00;91.10;;;;;;5039699;28;20028;-72
2022/10/12 07:27:04;;;;;;;13.40;6.68;;;11.90;91.20;;;;;;5035261;28;20424;-72
2022/10/12 07:29:31;;;;;;;18.17;6.43;;;11.90;91.30;;;;;;5035808;28;20021;-72
2022/10/12 07:31:58;;;;;;;16.65;6.75;;;11.90;91.30;;;;;;5036672;28;20022;-71
2022/10/12 07:34:25;;;;;;;18.88;7.97;;;11.90;91.20;;;;;;5042732;28;20025;-71
2022/10/12 07:36:50;;;;;;;17.15;7.13;;;11.80;91.40;;;;;;5045082;28;20116;-71
2022/10/12 07:39:17;;;;;;;16.25;7.05;;;11.80;91.50;;;;;;5044763;28;20116;-71
2022/10/12 07:41:42;;;;;;;19.55;7.53;;;11.60;92.00;;;;;;5037464;28;20109;-71
2022/10/12 07:44:09;;;;;;;19.52;7.22;;;11.50;92.20;;;;;;5046180;28;20452;-73
2022/10/12 07:46:34;;;;;;;19.08;7.40;;;11.40;92.40;;;;;;5037935;28;20018;-73
2022/10/12 07:49:00;;;;;;;16.00;6.72;;;11.40;92.60;;;;;;5041584;28;20032;-73
2022/10/12 07:51:25;;;;;;;16.25;7.43;;;11.20;92.80;;;;;;5041673;28;20472;-73
2022/10/12 07:53:51;;;;;;;13.43;6.65;;;11.20;92.90;;;;;;5035185;28;20064;-72
2022/10/12 07:56:17;;;;;;;13.00;7.30;;;11.20;93.20;;;;;;5038666;28;20373;-72
2022/10/12 07:58:53;;;;;;;16.08;7.20;;;11.10;93.20;;;;;;5042984;28;20119;-73
2022/10/12 08:01:21;;;;;;;26.05;8.38;;;11.30;93.20;;;;;;5037947;28;20033;-72
2022/10/12 08:03:48;;;;;;;19.63;8.70;;;11.30;93.00;;;;;;5035196;28;20057;-72
2022/10/12 08:06:19;;;;;;;17.25;7.68;;;11.30;93.00;;;;;;5036749;28;20037;-72
2022/10/12 08:08:45;;;;;;;21.52;9.00;;;11.40;93.00;;;;;;5052630;28;20029;-73
2022/10/12 08:11:11;;;;;;;17.80;7.88;;;11.30;93.10;;;;;;5050121;28;20029;-72
2022/10/12 08:13:37;;;;;;;23.00;9.93;;;11.30;93.30;;;;;;5041359;28;20029;-72
2022/10/12 08:16:05;;;;;;;18.80;9.05;;;11.40;93.30;;;;;;5035856;28;20035;-71
2022/10/12 08:18:31;;;;;;;22.50;10.75;;;11.40;93.30;;;;;;5037842;28;20029;-71
2022/10/12 08:20:58;;;;;;;22.85;10.75;;;11.50;93.40;;;;;;5052675;28;20039;-71
2022/10/12 08:23:24;;;;;;;21.85;9.90;;;11.50;93.40;;;;;;5045252;28;20028;-72
2022/10/12 08:25:54;;;;;;;21.55;10.57;;;11.60;93.30;;;;;;5040715;28;20031;-71
2022/10/12 08:28:20;;;;;;;23.30;10.55;;;11.80;93.10;;;;;;5044727;28;20063;-72
2022/10/12 08:30:46;;;;;;;23.77;11.27;;;11.90;93.00;;;;;;5042058;28;20473;-72
2022/10/12 08:33:12;;;;;;;22.42;11.00;;;12.00;93.00;;;;;;5042840;28;20049;-72
2022/10/12 08:35:39;;;;;;;21.63;10.65;;;12.10;92.90;;;;;;5039011;28;20056;-73
2022/10/12 08:38:05;;;;;;;17.70;9.98;;;12.20;92.90;;;;;;5040139;28;20549;-73
2022/10/12 08:40:34;;;;;;;20.25;8.90;;;12.30;93.00;;;;;;5033857;28;20168;-73
2022/10/12 08:43:37;;;;;;;20.17;9.35;;;12.40;92.60;;;;;;5032976;28;20018;-74
2022/10/12 08:46:03;;;;;;;23.67;8.90;;;12.60;92.00;;;;;;5048057;28;20048;-74
2022/10/12 08:49:11;;;;;;;19.88;8.05;;;12.80;91.90;;;;;;5040355;28;20021;-73
2022/10/12 08:51:53;;;;;;;18.05;8.32;;;12.90;91.70;;;;;;5035875;28;20033;-73
2022/10/12 08:54:21;;;;;;;19.95;7.35;;;13.00;91.30;;;;;;5041628;28;20088;-74
2022/10/12 08:56:47;;;;;;;16.40;7.82;;;13.00;91.50;;;;;;5035677;28;20083;-73
2022/10/12 08:59:17;;;;;;;20.65;7.85;;;13.00;91.30;;;;;;5041254;28;20384;-72
2022/10/12 09:02:03;;;;;;;12.95;7.55;;;13.10;91.30;;;;;;5045538;28;20029;-72
2022/10/12 09:04:47;;;;;;;16.23;7.28;;;13.20;91.60;;;;;;5039489;28;20025;-72
2022/10/12 09:07:29;;;;;;;19.08;7.47;;;13.30;91.50;;;;;;5039912;28;20489;-73
2022/10/12 09:10:10;;;;;;;17.08;7.43;;;13.40;91.30;;;;;;5033783;28;20026;-73
2022/10/12 09:12:57;;;;;;;14.93;8.20;;;13.50;91.20;;;;;;5033096;28;20370;-74
2022/10/12 09:15:35;;;;;;;15.63;7.90;;;13.50;91.30;;;;;;5034694;28;20037;-73
2022/10/12 09:18:03;;;;;;;12.20;7.05;;;13.50;91.40;;;;;;5044833;28;20025;-74
2022/10/12 09:20:34;;;;;;;18.35;6.75;;;13.60;91.40;;;;;;5051383;28;20041;-73
2022/10/12 09:23:24;;;;;;;13.07;6.15;;;13.80;91.20;;;;;;5045479;28;20041;-73
2022/10/12 09:25:51;;;;;;;13.15;5.90;;;14.10;90.90;;;;;;5033676;28;20108;-72
2022/10/12 09:28:32;;;;;;;17.13;6.18;;;14.30;90.50;;;;;;5044580;28;20046;-73
2022/10/12 09:31:17;;;;;;;20.60;7.25;;;14.50;90.10;;;;;;5035636;28;20021;-75
2022/10/12 09:33:56;;;;;;;14.10;6.88;;;14.60;89.50;;;;;;5052790;28;20489;-75
2022/10/12 09:36:24;;;;;;;15.63;6.50;;;14.80;89.90;;;;;;5045264;28;20022;-74
2022/10/12 09:38:50;;;;;;;11.82;5.63;;;14.90;88.60;;;;;;5033575;28;20037;-74
2022/10/12 09:41:21;;;;;;;16.08;6.15;;;15.00;88.20;;;;;;5033336;28;20025;-74
2022/10/12 09:44:00;;;;;;;14.52;6.55;;;15.10;87.80;;;;;;5033566;28;20377;-74
2022/10/12 09:46:36;;;;;;;16.40;6.70;;;15.10;87.90;;;;;;5040571;28;20103;-74
2022/10/12 09:49:02;;;;;;;15.90;5.85;;;15.10;87.20;;;;;;5046290;28;20483;-73
2022/10/12 09:51:29;;;;;;;15.48;5.85;;;15.30;87.40;;;;;;5041929;28;20056;-74
2022/10/12 09:54:01;;;;;;;21.05;6.63;;;15.40;87.30;;;;;;5049161;28;20028;-73
2022/10/12 09:56:33;;;;;;;16.80;5.70;;;15.50;86.80;;;;;;5040447;28;20392;-74
2022/10/12 09:59:02;;;;;;;15.13;5.63;;;15.50;86.20;;;;;;5049565;28;20044;-74
2022/10/12 10:01:38;;;;;;;21.50;6.68;;;15.50;86.20;;;;;;5038974;28;20040;-73
2022/10/12 10:04:16;;;;;;;20.13;6.28;;;15.70;86.30;;;;;;5038974;28;20048;-75
2022/10/12 10:06:44;;;;;;;13.98;6.20;;;15.80;85.70;;;;;;5042570;28;20110;-74
2022/10/12 10:09:30;;;;;;;14.75;6.07;;;16.00;85.90;;;;;;5043447;28;20025;-73
2022/10/12 10:11:57;;;;;;;12.93;5.80;;;16.20;85.10;;;;;;5042325;28;20029;-73
2022/10/12 10:14:23;;;;;;;12.88;5.82;;;16.40;84.50;;;;;;5050848;28;20025;-73
2022/10/12 10:16:51;;;;;;;14.52;6.07;;;16.40;83.80;;;;;;5044433;28;20540;-73
2022/10/12 10:19:18;;;;;;;13.70;6.15;;;16.50;83.70;;;;;;5049322;28;20389;-72
2022/10/12 10:21:45;;;;;;;15.68;6.53;;;16.70;83.40;;;;;;5047001;28;20136;-73
2022/10/12 10:24:29;;;;;;;16.48;6.40;;;16.70;83.50;;;;;;5044404;28;20102;-72
2022/10/12 10:27:01;;;;;;;15.57;6.35;;;16.80;83.00;;;;;;5045039;28;20044;-72
2022/10/12 10:29:40;;;;;;;13.32;6.75;;;16.80;82.30;;;;;;5032797;28;20377;-73
2022/10/12 10:32:27;;;;;;;15.15;6.55;;;16.80;82.00;;;;;;5045420;28;20072;-71
2022/10/12 10:35:06;;;;;;;18.13;6.57;;;16.90;82.40;;;;;;5048019;28;20025;-73
2022/10/12 10:37:32;;;;;;;17.73;8.27;;;16.90;82.00;;;;;;5045657;28;20041;-73
2022/10/12 10:39:59;;;;;;;17.70;7.03;;;16.90;82.20;;;;;;5051488;28;20087;-73
2022/10/12 10:42:31;;;;;;;18.33;6.80;;;16.90;82.50;;;;;;5053930;28;20480;-72
2022/10/12 10:45:07;;;;;;;14.55;6.90;;;16.90;83.20;;;;;;5056093;28;20116;-73
2022/10/12 10:47:41;;;;;;;13.85;6.95;;;17.00;82.60;;;;;;5056084;28;20448;-71
2022/10/12 10:50:26;;;;;;;15.18;6.63;;;17.00;82.60;;;;;;5055914;28;20388;-73
2022/10/12 10:52:55;;;;;;;16.67;7.40;;;17.00;82.60;;;;;;5055968;28;20029;-73
2022/10/12 10:55:48;;;;;;;15.07;6.97;;;17.00;82.30;;;;;;5056233;28;20033;-73
2022/10/12 10:58:35;;;;;;;13.35;7.25;;;17.00;82.30;;;;;;5056406;28;20155;-73
2022/10/12 11:01:12;;;;;;;16.17;6.65;;;17.10;82.30;;;;;;5056508;28;20132;-72
2022/10/12 11:03:49;;;;;;;19.85;7.60;;;17.20;82.50;;;;;;5055967;28;20025;-72
2022/10/12 11:06:31;;;;;;;22.00;7.38;;;17.30;82.90;;;;;;5055592;28;20040;-73
2022/10/12 11:09:28;;;;;;;16.67;8.00;;;17.30;82.30;;;;;;5055994;28;20040;-73
2022/10/12 11:12:20;;;;;;;15.98;7.13;;;17.40;81.30;;;;;;5053632;28;20054;-73
2022/10/12 11:14:50;;;;;;;17.08;8.07;;;17.40;80.10;;;;;;5055943;28;20599;-73
2022/10/12 11:17:22;;;;;;;16.92;7.63;;;17.50;80.80;;;;;;5055880;28;20092;-72
2022/10/12 11:19:54;;;;;;;16.63;7.80;;;17.60;80.10;;;;;;5062052;28;20040;-72
2022/10/12 11:22:43;;;;;;;15.53;7.73;;;17.60;80.50;;;;;;5059842;28;20021;-72
2022/10/12 11:25:34;;;;;;;18.67;8.20;;;17.70;80.50;;;;;;5055618;28;20251;-72
2022/10/12 11:27:59;;;;;;;15.95;7.65;;;17.90;80.70;;;;;;5055136;28;20056;-73
2022/10/12 11:30:33;;;;;;;19.23;7.07;;;18.00;79.70;;;;;;5055135;28;20377;-73
2022/10/12 11:33:05;;;;;;;14.93;6.55;;;18.10;78.40;;;;;;5055249;28;20496;-73
2022/10/12 11:35:35;;;;;;;16.00;6.88;;;18.10;78.40;;;;;;5055371;28;20109;-72
2022/10/12 11:38:06;;;;;;;14.10;6.22;;;18.20;78.30;;;;;;5055298;28;20033;-73
2022/10/12 11:40:53;;;;;;;13.35;6.35;;;18.40;77.80;;;;;;5055447;28;20075;-73
2022/10/12 11:43:22;;;;;;;12.30;6.00;;;18.60;75.80;;;;;;5055159;28;20495;-73
2022/10/12 11:45:52;;;;;;;17.20;6.07;;;18.70;74.80;;;;;;5054967;28;20039;-73
2022/10/12 11:48:36;;;;;;;19.38;5.55;;;18.70;74.60;;;;;;5055383;28;20036;-73
2022/10/12 11:51:03;;;;;;;11.13;5.40;;;18.70;72.30;;;;;;5055172;28;20025;-73
2022/10/12 11:54:06;;;;;;;15.48;5.75;;;18.60;72.50;;;;;;5054321;28;20033;-73
2022/10/12 11:56:42;;;;;;;14.10;5.63;;;18.70;73.70;;;;;;5054969;28;20017;-73
2022/10/12 11:59:37;;;;;;;16.98;6.03;;;18.80;73.40;;;;;;5054151;28;20520;-73
2022/10/12 12:02:30;;;;;;;18.48;6.28;;;18.90;73.10;;;;;;5054293;28;20032;-73
2022/10/12 12:04:57;;;;;;;14.18;5.68;;;18.90;72.30;;;;;;5054570;28;20043;-73
2022/10/12 12:07:45;;;;;;;14.80;5.63;;;19.10;72.40;;;;;;5054606;28;20033;-73
2022/10/12 12:10:26;;;;;;;17.27;6.53;;;19.20;72.00;;;;;;5054692;28;20029;-73
2022/10/12 12:13:11;;;;;;;16.00;7.53;;;19.30;71.70;;;;;;5054728;28;20079;-74
2022/10/12 12:15:46;;;;;;;15.93;6.70;;;19.20;71.60;;;;;;5056169;28;20021;-74
2022/10/12 12:18:16;;;;;;;16.00;6.68;;;19.10;72.60;;;;;;5060987;28;20032;-72
2022/10/12 12:20:45;;;;;;;15.10;6.63;;;19.00;72.90;;;;;;5054402;28;20080;-72
2022/10/12 12:23:18;;;;;;;15.82;7.20;;;19.00;72.20;;;;;;5054244;28;20061;-73
2022/10/12 12:25:44;;;;;;;18.73;7.90;;;18.90;73.20;;;;;;5054358;28;20056;-73
2022/10/12 12:28:21;;;;;;;22.65;9.30;;;18.90;73.30;;;;;;5054107;28;20509;-73
2022/10/12 12:31:00;;;;;;;17.85;8.70;;;18.90;73.10;;;;;;5054468;28;20051;-73
2022/10/12 12:33:33;;;;;;;19.42;7.50;;;18.90;73.60;;;;;;5054473;28;20025;-73
2022/10/12 12:36:02;;;;;;;14.60;7.88;;;18.80;73.80;;;;;;5054595;28;20100;-73
2022/10/12 12:38:47;;;;;;;17.70;7.45;;;18.90;72.60;;;;;;5054299;28;20082;-73
2022/10/12 12:41:18;;;;;;;14.68;7.32;;;18.80;72.00;;;;;;5054136;28;20033;-73
2022/10/12 12:43:44;;;;;;;17.92;7.93;;;18.80;72.10;;;;;;5054209;28;20075;-73
2022/10/12 12:46:13;;;;;;;14.90;7.28;;;18.70;72.90;;;;;;5054410;28;20028;-72
2022/10/12 12:48:38;;;;;;;19.00;6.65;;;18.70;73.90;;;;;;5054088;28;20017;-73
2022/10/12 12:51:23;;;;;;;18.63;7.55;;;18.70;75.00;;;;;;5054265;28;20032;-72
2022/10/12 12:54:11;;;;;;;18.52;7.00;;;18.60;74.30;;;;;;5053825;28;20025;-72
2022/10/12 12:57:16;;;;;;;14.90;6.63;;;18.60;74.20;;;;;;5053822;28;20025;-72